Time;durP1;ratioP1;P1;durP2;ratioP2;P2;SDS_P1;SDS_P2;PMS_P1;PMS_P2;Temp;Humidity;BMP_temperature;BMP_pressure;BME280_temperature;BME280_humidity;BME280_pressure;Samples;Min_cycle;Max_cycle;Signal;HPM_P1;HPM_P2
2022/05/24 00:02:38;0.00;0.00;0.62;0.00;0.00;0.62;4.33;2.63;;;26.20;38.20;;;;;;2262982;61;20887;-62
2022/05/24 00:05:28;0.00;0.00;0.62;0.00;0.00;0.62;3.20;2.30;;;26.20;38.40;;;;;;2263642;61;20387;-62
2022/05/24 00:08:13;0.00;0.00;0.62;0.00;0.00;0.62;4.67;2.17;;;26.10;38.30;;;;;;2262506;61;20414;-61
2022/05/24 00:10:58;0.00;0.00;0.62;0.00;0.00;0.62;3.13;2.30;;;26.10;38.50;;;;;;2263113;61;20364;-58
2022/05/24 00:13:42;0.00;0.00;0.62;0.00;0.00;0.62;3.67;2.23;;;26.10;38.80;;;;;;2263208;61;20446;-61
2022/05/24 00:16:29;0.00;0.00;0.62;0.00;0.00;0.62;3.33;2.40;;;26.00;38.90;;;;;;2262214;61;20430;-59
2022/05/24 00:19:13;0.00;0.00;0.62;0.00;0.00;0.62;2.80;1.70;;;26.00;38.90;;;;;;2263660;61;20395;-58
2022/05/24 00:21:58;0.00;0.00;0.62;0.00;0.00;0.62;2.83;1.63;;;26.00;38.80;;;;;;2262723;61;20395;-61
2022/05/24 00:24:43;0.00;0.00;0.62;0.00;0.00;0.62;3.40;2.00;;;26.00;38.50;;;;;;2263047;61;20388;-58
2022/05/24 00:27:28;0.00;0.00;0.62;0.00;0.00;0.62;3.53;2.10;;;26.10;38.40;;;;;;2263241;61;20374;-58
2022/05/24 00:30:15;0.00;0.00;0.62;0.00;0.00;0.62;2.47;2.27;;;26.10;38.20;;;;;;2262049;61;20863;-62
2022/05/24 00:33:02;0.00;0.00;0.62;0.00;0.00;0.62;2.57;1.90;;;26.10;37.80;;;;;;2263670;61;20368;-61
2022/05/24 00:35:47;0.00;0.00;0.62;0.00;0.00;0.62;2.30;1.60;;;26.20;37.60;;;;;;2262314;61;20781;-59
2022/05/24 00:38:36;0.00;0.00;0.62;0.00;0.00;0.62;2.60;1.73;;;26.20;37.30;;;;;;2259282;61;20412;-59
2022/05/24 00:41:26;0.00;0.00;0.62;0.00;0.00;0.62;3.03;1.37;;;26.30;37.80;;;;;;2260129;61;20381;-60
2022/05/24 00:44:21;0.00;0.00;0.62;0.00;0.00;0.62;3.20;2.00;;;26.30;36.90;;;;;;2259905;61;20369;-61
2022/05/24 00:47:11;0.00;0.00;0.62;0.00;0.00;0.62;2.20;1.67;;;26.40;36.80;;;;;;2260576;61;20447;-60
2022/05/24 00:50:03;0.00;0.00;0.62;0.00;0.00;0.62;2.77;1.60;;;26.40;36.60;;;;;;2260804;61;20353;-62
2022/05/24 00:52:55;0.00;0.00;0.62;0.00;0.00;0.62;2.50;1.70;;;26.50;36.50;;;;;;2259657;61;20399;-57
2022/05/24 00:55:50;0.00;0.00;0.62;0.00;0.00;0.62;1.90;1.47;;;26.50;36.30;;;;;;2260541;61;20381;-58
2022/05/24 00:58:42;0.00;0.00;0.62;0.00;0.00;0.62;2.33;1.50;;;26.60;36.90;;;;;;2260414;61;20506;-62
2022/05/24 01:01:33;0.00;0.00;0.62;0.00;0.00;0.62;2.90;1.50;;;26.60;36.00;;;;;;2259064;61;20389;-60
2022/05/24 01:04:19;0.00;0.00;0.62;0.00;0.00;0.62;2.03;1.47;;;26.70;35.90;;;;;;2260662;61;20365;-62
2022/05/24 01:07:06;0.00;0.00;0.62;0.00;0.00;0.62;2.00;1.53;;;26.70;35.80;;;;;;2259657;61;20430;-62
2022/05/24 01:10:00;0.00;0.00;0.62;0.00;0.00;0.62;1.70;1.40;;;26.80;35.70;;;;;;2260832;61;20423;-61
2022/05/24 01:12:49;0.00;0.00;0.62;0.00;0.00;0.62;1.80;1.20;;;26.80;35.50;;;;;;2257022;61;20431;-62
2022/05/24 01:15:35;0.00;0.00;0.62;0.00;0.00;0.62;2.63;1.77;;;26.90;35.40;;;;;;2259671;61;20464;-59
2022/05/24 01:18:21;0.00;0.00;0.62;0.00;0.00;0.62;2.40;1.50;;;26.90;35.30;;;;;;2260448;61;20376;-61
2022/05/24 01:21:15;0.00;0.00;0.62;0.00;0.00;0.62;2.10;1.70;;;27.00;35.20;;;;;;2259896;61;20401;-62
2022/05/24 01:24:13;0.00;0.00;0.62;0.00;0.00;0.62;2.57;1.70;;;27.00;35.00;;;;;;2259994;61;20357;-59
2022/05/24 01:26:59;0.00;0.00;0.62;0.00;0.00;0.62;1.83;1.40;;;27.00;35.00;;;;;;2260712;61;20488;-60
2022/05/24 01:29:44;0.00;0.00;0.62;0.00;0.00;0.62;1.80;1.03;;;27.00;34.80;;;;;;2259596;61;20933;-62
2022/05/24 01:38:41;0.00;0.00;0.62;0.00;0.00;0.62;2.47;1.40;;;27.20;34.50;;;;;;2260303;61;20407;-59
2022/05/24 01:41:31;0.00;0.00;0.62;0.00;0.00;0.62;2.00;1.50;;;27.20;34.40;;;;;;2259670;61;20397;-62
2022/05/24 01:44:24;0.00;0.00;0.62;0.00;0.00;0.62;2.43;1.63;;;27.30;34.30;;;;;;2259336;61;20364;-63
2022/05/24 01:47:09;0.00;0.00;0.62;0.00;0.00;0.62;1.80;1.20;;;27.30;34.20;;;;;;2260711;61;20393;-68
2022/05/24 01:49:59;0.00;0.00;0.62;0.00;0.00;0.62;1.60;1.30;;;27.30;34.10;;;;;;2259708;61;20376;-59
2022/05/24 01:52:51;0.00;0.00;0.62;0.00;0.00;0.62;1.83;1.50;;;27.30;33.90;;;;;;2259511;61;20365;-62
2022/05/24 01:55:40;0.00;0.00;0.62;0.00;0.00;0.62;1.83;1.43;;;27.40;33.90;;;;;;2260526;61;20847;-62
2022/05/24 01:58:28;0.00;0.00;0.62;0.00;0.00;0.62;1.90;1.50;;;27.40;33.70;;;;;;2259844;61;20704;-61
2022/05/24 02:01:24;0.00;0.00;0.62;0.00;0.00;0.62;2.37;1.47;;;27.40;33.60;;;;;;2260029;61;20933;-60
2022/05/24 02:04:09;0.00;0.00;0.62;0.00;0.00;0.62;2.30;1.37;;;27.40;33.40;;;;;;2260525;61;20389;-60
2022/05/24 02:07:05;0.00;0.00;0.62;0.00;0.00;0.62;1.90;1.60;;;27.50;33.40;;;;;;2259182;61;20400;-62
2022/05/24 02:09:54;0.00;0.00;0.62;0.00;0.00;0.62;1.70;1.30;;;27.50;33.30;;;;;;2260553;61;20405;-59
2022/05/24 02:12:44;0.00;0.00;0.62;0.00;0.00;0.62;1.87;1.40;;;27.50;33.20;;;;;;2259925;61;20445;-62
2022/05/24 02:15:37;0.00;0.00;0.62;0.00;0.00;0.62;1.80;1.57;;;27.50;33.10;;;;;;2259764;61;20409;-57
2022/05/24 02:18:25;0.00;0.00;0.62;0.00;0.00;0.62;1.90;1.50;;;27.60;33.00;;;;;;2260620;61;20412;-62
2022/05/24 02:21:09;0.00;0.00;0.62;0.00;0.00;0.62;1.73;1.40;;;27.60;32.90;;;;;;2258865;61;20388;-60
2022/05/24 02:23:54;0.00;0.00;0.62;0.00;0.00;0.62;1.60;1.30;;;27.60;32.80;;;;;;2260380;61;20821;-63
2022/05/24 02:26:38;0.00;0.00;0.62;0.00;0.00;0.62;1.60;1.33;;;27.70;32.80;;;;;;2260311;61;20457;-62
2022/05/24 02:29:23;0.00;0.00;0.62;0.00;0.00;0.62;1.50;1.20;;;27.70;32.60;;;;;;2259121;61;20412;-63
2022/05/24 02:32:08;0.00;0.00;0.62;0.00;0.00;0.62;2.77;1.23;;;27.70;32.50;;;;;;2260231;61;20932;-60
2022/05/24 02:34:54;0.00;0.00;0.62;0.00;0.00;0.62;1.60;1.30;;;27.70;32.40;;;;;;2260180;61;20889;-61
2022/05/24 02:37:39;0.00;0.00;0.62;0.00;0.00;0.62;1.87;1.60;;;27.70;32.30;;;;;;2259086;61;20465;-62
2022/05/24 02:43:27;0.00;0.00;0.62;0.00;0.00;0.62;2.30;1.50;;;27.80;32.20;;;;;;2258984;61;20419;-62
2022/05/24 02:46:16;0.00;0.00;0.62;0.00;0.00;0.62;1.67;1.10;;;27.80;32.00;;;;;;2260059;61;20411;-62
2022/05/24 02:49:02;0.00;0.00;0.62;0.00;0.00;0.62;1.60;1.40;;;27.80;31.90;;;;;;2260185;61;20373;-57
2022/05/24 02:51:47;0.00;0.00;0.62;0.00;0.00;0.62;2.00;1.37;;;27.80;31.90;;;;;;2259193;61;20962;-62
2022/05/24 02:54:32;0.00;0.00;0.62;0.00;0.00;0.62;1.70;1.10;;;27.80;32.00;;;;;;2260390;61;20384;-63
2022/05/24 02:57:17;0.00;0.00;0.62;0.00;0.00;0.62;1.80;1.17;;;27.80;31.90;;;;;;2260092;61;20472;-61
2022/05/24 03:00:08;0.00;0.00;0.62;0.00;0.00;0.62;1.93;1.30;;;27.90;32.00;;;;;;2259816;61;20674;-62
2022/05/24 03:02:53;0.00;0.00;0.62;0.00;0.00;0.62;1.60;1.33;;;27.90;32.00;;;;;;2260142;61;20740;-62
2022/05/24 03:05:41;0.00;0.00;0.62;0.00;0.00;0.62;1.40;1.20;;;27.90;32.00;;;;;;2258804;61;20488;-63
2022/05/24 03:14:35;0.00;0.00;0.62;0.00;0.00;0.62;1.60;1.10;;;27.90;31.70;;;;;;2259260;61;20439;-63
2022/05/24 03:17:20;0.00;0.00;0.62;0.00;0.00;0.62;1.73;1.10;;;27.90;31.60;;;;;;2259968;61;20804;-58
2022/05/24 03:20:07;0.00;0.00;0.62;0.00;0.00;0.62;1.50;1.10;;;28.00;31.70;;;;;;2259636;61;20409;-60
2022/05/24 03:22:51;0.00;0.00;0.62;0.00;0.00;0.62;1.40;1.03;;;28.00;31.60;;;;;;2260208;61;20521;-62
2022/05/24 03:25:40;0.00;0.00;0.62;0.00;0.00;0.62;1.60;1.20;;;28.00;31.50;;;;;;2259535;61;21014;-62
2022/05/24 03:28:25;0.00;0.00;0.62;0.00;0.00;0.62;1.40;0.93;;;28.00;31.40;;;;;;2259780;61;20909;-66
2022/05/24 03:31:10;0.00;0.00;0.62;0.00;0.00;0.62;1.97;1.00;;;28.00;31.30;;;;;;2259859;61;20491;-62
2022/05/24 03:33:55;0.00;0.00;0.62;0.00;0.00;0.62;1.50;0.90;;;28.00;31.30;;;;;;2259426;61;20369;-61
2022/05/24 03:36:39;0.00;0.00;0.62;0.00;0.00;0.62;1.40;1.20;;;28.00;31.30;;;;;;2259457;61;20485;-62
2022/05/24 03:39:24;0.00;0.00;0.62;0.00;0.00;0.62;1.50;1.10;;;28.00;31.20;;;;;;2259807;61;20368;-62
2022/05/24 03:42:10;0.00;0.00;0.62;0.00;0.00;0.62;1.40;1.10;;;28.00;31.10;;;;;;2259432;61;20373;-62
2022/05/24 03:44:55;0.00;0.00;0.62;0.00;0.00;0.62;1.50;1.10;;;28.00;31.00;;;;;;2260185;61;20439;-61
2022/05/24 03:47:40;0.00;0.00;0.62;0.00;0.00;0.62;1.77;1.10;;;28.00;31.00;;;;;;2260282;61;20388;-63
2022/05/24 03:50:25;0.00;0.00;0.62;0.00;0.00;0.62;1.90;1.10;;;28.10;31.00;;;;;;2258789;61;20361;-67
2022/05/24 03:53:10;0.00;0.00;0.62;0.00;0.00;0.62;1.50;0.90;;;28.10;31.00;;;;;;2260221;61;20901;-62
2022/05/24 03:55:55;0.00;0.00;0.62;0.00;0.00;0.62;1.60;1.00;;;28.10;30.90;;;;;;2260253;61;20376;-63
2022/05/24 03:58:41;0.00;0.00;0.62;0.00;0.00;0.62;1.47;1.03;;;28.10;30.90;;;;;;2259668;61;20369;-62
2022/05/24 04:01:27;0.00;0.00;0.62;0.00;0.00;0.62;1.60;1.30;;;28.10;30.80;;;;;;2259841;61;20387;-61
2022/05/24 04:04:12;0.00;0.00;0.62;0.00;0.00;0.62;1.80;1.07;;;28.10;30.80;;;;;;2259982;61;20453;-62
2022/05/24 04:06:57;0.00;0.00;0.62;0.00;0.00;0.62;1.60;1.20;;;28.10;30.70;;;;;;2259851;61;20393;-61
2022/05/24 04:09:42;0.00;0.00;0.62;0.00;0.00;0.62;1.80;1.20;;;28.10;30.70;;;;;;2259964;61;20961;-62
2022/05/24 04:12:26;0.00;0.00;0.62;0.00;0.00;0.62;1.97;1.23;;;28.10;30.60;;;;;;2259066;61;20356;-61
2022/05/24 04:15:13;0.00;0.00;0.62;0.00;0.00;0.62;1.70;1.27;;;28.10;30.60;;;;;;2260823;61;20356;-62
2022/05/24 04:17:58;0.00;0.00;0.62;0.00;0.00;0.62;1.40;0.97;;;28.10;30.60;;;;;;2260687;61;20357;-61
2022/05/24 04:20:43;0.00;0.00;0.62;0.00;0.00;0.62;1.60;1.20;;;28.10;30.60;;;;;;2259630;61;21036;-58
2022/05/24 04:23:28;0.00;0.00;0.62;0.00;0.00;0.62;3.13;1.27;;;28.10;30.50;;;;;;2260951;61;20478;-62
2022/05/24 04:26:13;0.00;0.00;0.62;0.00;0.00;0.62;1.70;1.40;;;28.10;30.40;;;;;;2260236;61;20847;-65
2022/05/24 04:29:00;0.00;0.00;0.62;0.00;0.00;0.62;1.70;1.20;;;28.10;30.40;;;;;;2260420;61;20790;-62
2022/05/24 04:31:46;0.00;0.00;0.62;0.00;0.00;0.62;1.80;1.20;;;28.10;30.40;;;;;;2260530;61;20423;-62
2022/05/24 04:34:32;0.00;0.00;0.62;0.00;0.00;0.62;1.40;0.97;;;28.20;30.40;;;;;;2259776;61;20362;-58
2022/05/24 04:37:17;0.00;0.00;0.62;0.00;0.00;0.62;1.40;1.27;;;28.20;30.40;;;;;;2260848;61;20412;-62
2022/05/24 04:40:02;0.00;0.00;0.62;0.00;0.00;0.62;2.13;1.30;;;28.10;30.30;;;;;;2260375;61;20445;-61
2022/05/24 04:42:46;0.00;0.00;0.62;0.00;0.00;0.62;2.23;1.50;;;28.20;30.30;;;;;;2259714;61;20392;-60
2022/05/24 04:45:31;0.00;0.00;0.62;0.00;0.00;0.62;1.83;1.50;;;28.20;30.20;;;;;;2260719;61;20393;-58
2022/05/24 04:48:17;0.00;0.00;0.62;0.00;0.00;0.62;2.13;1.40;;;28.20;30.20;;;;;;2260317;61;20788;-62
2022/05/24 04:51:01;0.00;0.00;0.62;0.00;0.00;0.62;2.00;1.30;;;28.20;30.20;;;;;;2259806;61;20369;-63
2022/05/24 04:53:46;0.00;0.00;0.62;0.00;0.00;0.62;2.07;1.73;;;28.20;30.20;;;;;;2260884;61;20457;-62
2022/05/24 04:56:30;0.00;0.00;0.62;0.00;0.00;0.62;2.10;1.90;;;28.20;30.20;;;;;;2259455;61;20377;-63
2022/05/24 04:59:16;0.00;0.00;0.62;0.00;0.00;0.62;3.80;1.80;;;28.20;30.10;;;;;;2260908;61;20361;-60
2022/05/24 05:02:01;0.00;0.00;0.62;0.00;0.00;0.62;2.10;1.40;;;28.20;30.10;;;;;;2260048;61;20365;-62
2022/05/24 05:04:48;0.00;0.00;0.62;0.00;0.00;0.62;1.70;1.40;;;28.20;30.10;;;;;;2259953;61;20888;-63
2022/05/24 05:07:33;0.00;0.00;0.62;0.00;0.00;0.62;2.40;1.60;;;28.20;30.10;;;;;;2260855;61;20396;-62
2022/05/24 05:10:18;0.00;0.00;0.62;0.00;0.00;0.62;2.23;1.70;;;28.20;30.00;;;;;;2260318;61;20369;-60
2022/05/24 05:13:02;0.00;0.00;0.62;0.00;0.00;0.62;2.43;1.90;;;28.20;30.00;;;;;;2260017;61;20360;-61
2022/05/24 05:15:47;0.00;0.00;0.62;0.00;0.00;0.62;3.10;2.20;;;28.20;30.00;;;;;;2260684;61;20385;-64
2022/05/24 05:18:32;0.00;0.00;0.62;0.00;0.00;0.62;2.60;1.90;;;28.20;30.00;;;;;;2260075;61;20827;-63
2022/05/24 05:21:18;0.00;0.00;0.62;0.00;0.00;0.62;2.30;1.80;;;28.20;30.00;;;;;;2260412;61;20365;-63
2022/05/24 05:24:05;0.00;0.00;0.62;0.00;0.00;0.62;2.30;1.60;;;28.20;30.00;;;;;;2260418;61;20393;-63
2022/05/24 05:26:50;0.00;0.00;0.62;0.00;0.00;0.62;2.33;1.97;;;28.20;30.00;;;;;;2259950;61;20476;-60
2022/05/24 05:32:38;0.00;0.00;0.62;0.00;0.00;0.62;2.17;1.70;;;28.20;30.00;;;;;;2259867;61;20654;-63
2022/05/24 05:35:23;0.00;0.00;0.62;0.00;0.00;0.62;2.17;1.93;;;28.20;29.90;;;;;;2259584;61;20383;-65
2022/05/24 05:38:08;0.00;0.00;0.62;0.00;0.00;0.62;2.40;2.20;;;28.30;30.00;;;;;;2260080;61;20893;-59
2022/05/24 05:40:54;0.00;0.00;0.62;0.00;0.00;0.62;2.30;2.00;;;28.20;29.90;;;;;;2259081;61;20365;-61
2022/05/24 05:43:40;0.00;0.00;0.62;0.00;0.00;0.62;4.90;2.33;;;28.20;29.90;;;;;;2259791;61;20366;-63
2022/05/24 05:46:25;0.00;0.00;0.62;0.00;0.00;0.62;3.43;2.90;;;28.30;29.90;;;;;;2260106;61;20388;-58
2022/05/24 05:49:15;0.00;0.00;0.62;0.00;0.00;0.62;3.90;2.60;;;28.30;29.80;;;;;;2260437;61;20400;-61
2022/05/24 05:52:00;0.00;0.00;0.62;0.00;0.00;0.62;3.87;2.57;;;28.30;29.80;;;;;;2260156;61;20416;-62
2022/05/24 05:54:45;0.00;0.00;0.62;0.00;0.00;0.62;3.60;2.40;;;28.30;29.80;;;;;;2260613;61;20384;-62
2022/05/24 05:57:30;0.00;0.00;0.62;0.00;0.00;0.62;3.20;2.60;;;28.30;30.40;;;;;;2260310;61;20383;-61
2022/05/24 06:00:17;0.00;0.00;0.62;0.00;0.00;0.62;2.77;2.40;;;28.30;29.80;;;;;;2260512;61;20381;-61
2022/05/24 06:03:05;0.00;0.00;0.62;0.00;0.00;0.62;3.17;2.63;;;28.30;29.80;;;;;;2259874;61;20742;-62
2022/05/24 06:05:52;0.00;0.00;0.62;0.00;0.00;0.62;2.93;2.40;;;28.30;29.80;;;;;;2260454;61;20392;-59
2022/05/24 06:08:37;0.00;0.00;0.62;0.00;0.00;0.62;3.10;2.70;;;28.30;29.80;;;;;;2260702;61;20572;-59
2022/05/24 06:11:23;0.00;0.00;0.62;0.00;0.00;0.62;2.70;2.30;;;28.30;29.80;;;;;;2259811;61;20407;-61
2022/05/24 06:14:08;0.00;0.00;0.62;0.00;0.00;0.62;2.70;2.30;;;28.30;29.80;;;;;;2260655;61;20445;-62
2022/05/24 06:16:52;0.00;0.00;0.62;0.00;0.00;0.62;2.70;2.30;;;28.30;29.70;;;;;;2260415;61;20777;-62
2022/05/24 06:19:37;0.00;0.00;0.62;0.00;0.00;0.62;3.20;2.90;;;28.30;29.70;;;;;;2260244;61;20361;-62
2022/05/24 06:22:22;0.00;0.00;0.62;0.00;0.00;0.62;2.80;2.50;;;28.30;29.70;;;;;;2260409;61;20889;-61
2022/05/24 06:25:08;0.00;0.00;0.62;0.00;0.00;0.62;2.60;2.20;;;28.30;29.70;;;;;;2260118;61;20384;-64
2022/05/24 06:27:55;0.00;0.00;0.62;0.00;0.00;0.62;3.60;2.80;;;28.30;29.70;;;;;;2260641;61;20423;-63
2022/05/24 06:30:40;0.00;0.00;0.62;0.00;0.00;0.62;3.37;3.07;;;28.30;29.70;;;;;;2260419;61;20361;-61
2022/05/24 06:33:24;0.00;0.00;0.62;0.00;0.00;0.62;3.10;2.80;;;28.30;29.70;;;;;;2260333;61;20359;-61
2022/05/24 06:36:09;0.00;0.00;0.62;0.00;0.00;0.62;4.30;2.70;;;28.30;29.70;;;;;;2260421;61;20922;-61
2022/05/24 06:38:54;0.00;0.00;0.62;0.00;0.00;0.62;3.53;3.07;;;28.40;29.70;;;;;;2260229;61;20372;-60
2022/05/24 06:41:39;0.00;0.00;0.62;0.00;0.00;0.62;2.90;2.70;;;28.40;29.70;;;;;;2259535;61;20407;-61
2022/05/24 06:44:25;0.00;0.00;0.62;0.00;0.00;0.62;2.50;2.30;;;28.40;29.70;;;;;;2260644;61;20361;-58
2022/05/24 06:47:09;0.00;0.00;0.62;0.00;0.00;0.62;3.50;3.20;;;28.40;29.70;;;;;;2260274;61;20866;-61
2022/05/24 06:49:55;0.00;0.00;0.62;0.00;0.00;0.62;3.27;2.97;;;28.40;29.60;;;;;;2260457;61;20767;-61
2022/05/24 06:52:40;0.00;0.00;0.62;0.00;0.00;0.62;5.53;5.00;;;28.40;29.60;;;;;;2260008;61;20889;-63
2022/05/24 06:55:25;0.00;0.00;0.62;0.00;0.00;0.62;5.47;5.07;;;28.40;29.50;;;;;;2259736;61;20470;-62
2022/05/24 06:58:10;0.00;0.00;0.62;0.00;0.00;0.62;5.00;4.50;;;28.40;29.30;;;;;;2260291;61;20445;-63
2022/05/24 07:04:03;0.00;0.00;0.62;0.00;0.00;0.62;4.70;4.30;;;28.30;29.00;;;;;;2260409;61;20389;-61
2022/05/24 07:06:48;0.00;0.00;0.62;0.00;0.00;0.62;4.43;4.03;;;28.20;29.00;;;;;;2262291;61;20393;-64
2022/05/24 07:09:33;0.00;0.00;0.62;0.00;0.00;0.62;4.70;4.30;;;28.20;29.00;;;;;;2261810;61;20387;-59
2022/05/24 07:12:19;0.00;0.00;0.62;0.00;0.00;0.62;4.80;4.40;;;28.10;29.00;;;;;;2260168;61;20392;-65
2022/05/24 07:15:05;0.00;0.00;0.62;0.00;0.00;0.62;4.47;4.07;;;28.00;29.00;;;;;;2261488;61;20349;-66
2022/05/24 07:17:51;0.00;0.00;0.62;0.00;0.00;0.62;6.33;5.83;;;28.00;29.10;;;;;;2261618;61;20364;-65
2022/05/24 07:20:36;0.00;0.00;0.62;0.00;0.00;0.62;4.53;4.13;;;27.90;29.20;;;;;;2261643;61;20385;-65
2022/05/24 07:23:24;0.00;0.00;0.62;0.00;0.00;0.62;5.10;4.60;;;27.80;29.20;;;;;;2261508;61;20384;-65
2022/05/24 07:26:13;0.00;0.00;0.62;0.00;0.00;0.62;5.30;4.80;;;27.70;29.30;;;;;;2261570;61;20401;-64
2022/05/24 07:28:57;0.00;0.00;0.62;0.00;0.00;0.62;5.90;5.40;;;27.60;29.40;;;;;;2261405;61;20377;-63
2022/05/24 07:31:42;0.00;0.00;0.62;0.00;0.00;0.62;7.43;6.20;;;27.50;29.40;;;;;;2259233;61;20356;-66
2022/05/24 07:34:28;0.00;0.00;0.62;0.00;0.00;0.62;6.60;6.00;;;27.50;29.50;;;;;;2260765;61;20369;-67
2022/05/24 07:37:16;0.00;0.00;0.62;0.00;0.00;0.62;5.93;5.43;;;27.40;29.60;;;;;;2260190;61;20424;-66
2022/05/24 07:46:13;0.00;0.00;0.62;0.00;0.00;0.62;5.90;4.63;;;27.20;29.80;;;;;;2259524;61;20424;-67
2022/05/24 07:48:58;0.00;0.00;0.62;0.00;0.00;0.62;5.80;5.30;;;27.00;29.80;;;;;;2260870;61;20411;-66
2022/05/24 07:51:44;0.00;0.00;0.62;0.00;0.00;0.62;5.20;4.70;;;27.00;29.90;;;;;;2260436;61;20360;-64
2022/05/24 07:54:28;0.00;0.00;0.62;0.00;0.00;0.62;5.83;5.23;;;26.90;30.00;;;;;;2496343;53;20373;-64
2022/05/24 07:57:13;0.00;0.00;0.62;0.00;0.00;0.62;5.67;5.17;;;26.80;30.00;;;;;;2261290;61;20427;-64
2022/05/24 07:59:58;0.00;0.00;0.62;0.00;0.00;0.62;6.90;6.20;;;26.80;30.20;;;;;;2261946;61;20365;-65
2022/05/24 08:02:42;0.00;0.00;0.62;0.00;0.00;0.62;6.00;5.50;;;26.70;30.40;;;;;;2259450;61;20818;-68
2022/05/24 08:05:30;0.00;0.00;0.62;0.00;0.00;0.62;5.10;4.60;;;26.60;30.50;;;;;;2260521;61;20392;-57
2022/05/24 08:08:17;0.00;0.00;0.62;0.00;0.00;0.62;5.97;5.37;;;26.60;30.60;;;;;;2260353;61;20361;-61
2022/05/24 08:11:02;0.00;0.00;0.62;0.00;0.00;0.62;5.60;5.10;;;26.50;30.80;;;;;;2260243;61;20416;-61
2022/05/24 08:13:47;0.00;0.00;0.62;0.00;0.00;0.62;6.00;5.43;;;26.50;31.10;;;;;;2260779;61;20388;-63
2022/05/24 08:16:32;0.00;0.00;0.62;0.00;0.00;0.62;5.80;5.30;;;26.40;31.00;;;;;;2260098;61;20951;-62
2022/05/24 08:19:17;0.00;0.00;0.62;0.00;0.00;0.62;7.07;6.00;;;26.30;30.90;;;;;;2261135;61;20908;-59
2022/05/24 08:22:02;0.00;0.00;0.62;0.00;0.00;0.62;6.90;6.13;;;26.30;30.90;;;;;;2259663;61;20368;-61
2022/05/24 08:24:48;0.00;0.00;0.62;0.00;0.00;0.62;6.20;5.60;;;26.20;30.90;;;;;;2260756;61;20384;-60
2022/05/24 08:27:33;0.00;0.00;0.62;0.00;0.00;0.62;6.30;5.80;;;26.20;31.00;;;;;;2261123;61;20812;-68
2022/05/24 08:30:18;0.00;0.00;0.62;0.00;0.00;0.62;5.97;5.47;;;26.10;31.20;;;;;;2261939;61;20388;-67
2022/05/24 08:33:04;0.00;0.00;0.62;0.00;0.00;0.62;5.93;5.50;;;26.10;31.30;;;;;;2261862;61;20356;-67
2022/05/24 08:35:50;0.00;0.00;0.62;0.00;0.00;0.62;7.00;6.30;;;26.00;31.40;;;;;;2262334;61;20449;-68
2022/05/24 08:38:35;0.00;0.00;0.62;0.00;0.00;0.62;6.17;5.57;;;26.00;31.50;;;;;;2261658;61;20411;-58
2022/05/24 08:41:32;0.00;0.00;0.62;0.00;0.00;0.62;5.10;4.70;;;25.90;31.60;;;;;;2261726;61;20948;-68
2022/05/24 08:50:34;0.00;0.00;0.62;0.00;0.00;0.62;3.33;3.03;;;25.70;31.40;;;;;;2260583;61;21031;-61
2022/05/24 08:53:28;0.00;0.00;0.62;0.00;0.00;0.62;2.60;2.40;;;25.70;31.20;;;;;;2260472;61;20396;-58
2022/05/24 08:56:17;0.00;0.00;0.62;0.00;0.00;0.62;4.00;2.90;;;25.60;31.00;;;;;;2260788;61;20465;-57
2022/05/24 08:59:12;0.00;0.00;0.62;0.00;0.00;0.62;3.43;2.60;;;25.60;31.00;;;;;;2262037;61;20456;-63
2022/05/24 09:01:59;0.00;0.00;0.62;0.00;0.00;0.62;6.67;3.17;;;25.50;31.00;;;;;;2264409;61;20361;-65
2022/05/24 09:04:44;0.00;0.00;0.62;0.00;0.00;0.62;4.10;3.30;;;25.50;31.10;;;;;;2263396;61;20392;-62
2022/05/24 09:07:38;0.00;0.00;0.62;0.00;0.00;0.62;3.27;2.97;;;25.40;31.20;;;;;;2259898;61;20900;-58
2022/05/24 09:10:33;0.00;0.00;0.62;0.00;0.00;0.62;3.00;2.70;;;25.40;31.40;;;;;;2260395;61;20361;-57
2022/05/24 09:14:05;0.00;0.00;0.62;0.00;0.00;0.62;4.07;3.20;;;25.30;31.30;;;;;;2260269;61;20809;-59
2022/05/24 09:17:04;0.00;0.00;0.62;0.00;0.00;0.62;2.73;2.20;;;25.20;31.30;;;;;;2260749;61;20465;-65
2022/05/24 09:19:49;0.00;0.00;0.62;0.00;0.00;0.62;3.10;2.80;;;25.20;31.50;;;;;;2260995;61;20905;-67
2022/05/24 09:22:36;0.00;0.00;0.62;0.00;0.00;0.62;3.27;2.93;;;25.10;31.50;;;;;;2259584;61;20381;-67
2022/05/24 09:25:21;0.00;0.00;0.62;0.00;0.00;0.62;4.57;2.50;;;25.00;31.60;;;;;;2261149;61;20802;-63
2022/05/24 09:28:06;0.00;0.00;0.62;0.00;0.00;0.62;2.97;2.37;;;25.00;31.90;;;;;;2260416;61;20583;-68
2022/05/24 09:30:50;0.00;0.00;0.62;0.00;0.00;0.62;3.13;2.83;;;24.90;31.90;;;;;;2261668;61;20432;-63
2022/05/24 09:33:41;0.00;0.00;0.62;0.00;0.00;0.62;3.13;2.60;;;24.80;32.10;;;;;;2499393;53;20373;-67
2022/05/24 09:36:38;0.00;0.00;0.62;0.00;0.00;0.62;3.33;3.03;;;24.80;32.30;;;;;;2261417;61;20385;-63
2022/05/24 09:39:32;0.00;0.00;0.62;0.00;0.00;0.62;2.93;2.73;;;24.70;32.30;;;;;;2261830;61;20361;-66
2022/05/24 09:42:27;0.00;0.00;0.62;0.00;0.00;0.62;3.50;3.00;;;24.70;32.40;;;;;;2263370;61;20375;-63
2022/05/24 09:45:16;0.00;0.00;0.62;0.00;0.00;0.62;3.00;2.70;;;24.60;32.40;;;;;;2263366;61;20889;-66
2022/05/24 09:48:01;0.00;0.00;0.62;0.00;0.00;0.62;3.20;2.90;;;24.60;32.40;;;;;;2261142;61;20756;-56
2022/05/24 09:50:52;0.00;0.00;0.62;0.00;0.00;0.62;3.57;3.27;;;24.60;32.50;;;;;;2259210;61;20414;-66
2022/05/24 09:53:49;0.00;0.00;0.62;0.00;0.00;0.62;5.50;4.27;;;24.60;32.60;;;;;;2259996;61;20377;-66
2022/05/24 09:56:34;0.00;0.00;0.62;0.00;0.00;0.62;4.20;3.80;;;24.60;32.60;;;;;;2260554;61;20392;-68
2022/05/24 09:59:26;0.00;0.00;0.62;0.00;0.00;0.62;3.93;3.63;;;24.50;32.50;;;;;;2259738;61;20364;-64
2022/05/24 10:02:27;0.00;0.00;0.62;0.00;0.00;0.62;4.77;4.27;;;24.50;32.50;;;;;;2260084;61;20959;-64
2022/05/24 10:05:20;0.00;0.00;0.62;0.00;0.00;0.62;4.77;4.37;;;24.40;32.50;;;;;;2259848;61;20360;-64
2022/05/24 10:08:15;0.00;0.00;0.62;0.00;0.00;0.62;4.40;4.00;;;24.40;32.50;;;;;;2260865;61;20420;-63
2022/05/24 10:10:59;0.00;0.00;0.62;0.00;0.00;0.62;4.80;4.40;;;24.40;32.60;;;;;;2259623;61;20381;-66
2022/05/24 10:13:55;0.00;0.00;0.62;0.00;0.00;0.62;5.40;4.90;;;24.30;32.50;;;;;;2259850;61;20465;-68
2022/05/24 10:16:46;0.00;0.00;0.62;0.00;0.00;0.62;5.57;4.80;;;24.40;32.60;;;;;;2260387;61;20773;-58
2022/05/24 10:19:49;0.00;0.00;0.62;0.00;0.00;0.62;5.77;4.73;;;24.30;32.40;;;;;;2261516;61;20400;-62
2022/05/24 10:22:44;0.00;0.00;0.62;0.00;0.00;0.62;5.33;4.83;;;24.30;32.50;;;;;;2259710;61;20352;-65
2022/05/24 10:25:40;0.00;0.00;0.62;0.00;0.00;0.62;6.17;5.43;;;24.30;32.50;;;;;;2260350;61;21002;-67
2022/05/24 10:28:38;0.00;0.00;0.62;0.00;0.00;0.62;6.60;5.30;;;24.30;32.40;;;;;;2260054;61;20940;-65
2022/05/24 10:31:39;0.00;0.00;0.62;0.00;0.00;0.62;4.93;4.53;;;24.30;32.40;;;;;;2259886;61;20361;-68
2022/05/24 10:41:08;0.00;0.00;0.62;0.00;0.00;0.62;7.93;5.70;;;24.20;32.30;;;;;;2260164;61;20408;-67
2022/05/24 10:44:01;0.00;0.00;0.62;0.00;0.00;0.62;5.40;4.90;;;24.20;32.50;;;;;;2259830;61;20782;-67
2022/05/24 10:46:56;0.00;0.00;0.62;0.00;0.00;0.62;5.60;5.10;;;24.20;32.50;;;;;;2260206;61;20408;-67
2022/05/24 10:49:47;0.00;0.00;0.62;0.00;0.00;0.62;5.70;5.13;;;24.20;32.50;;;;;;2259397;61;20376;-67
2022/05/24 10:52:37;0.00;0.00;0.62;0.00;0.00;0.62;5.77;5.27;;;24.10;32.50;;;;;;2259649;61;20897;-68
2022/05/24 10:55:28;0.00;0.00;0.62;0.00;0.00;0.62;6.40;5.03;;;24.10;32.40;;;;;;2259716;61;20902;-68
2022/05/24 10:58:17;0.00;0.00;0.62;0.00;0.00;0.62;5.33;4.93;;;24.10;32.30;;;;;;2259801;61;20361;-61
2022/05/24 11:01:11;0.00;0.00;0.62;0.00;0.00;0.62;4.50;4.17;;;24.10;32.30;;;;;;2259633;61;20771;-60
2022/05/24 11:04:04;0.00;0.00;0.62;0.00;0.00;0.62;4.23;3.83;;;24.10;32.20;;;;;;2260258;61;20392;-65
2022/05/24 11:06:58;0.00;0.00;0.62;0.00;0.00;0.62;4.47;3.87;;;24.10;32.30;;;;;;2259620;61;20392;-65
2022/05/24 11:09:54;0.00;0.00;0.62;0.00;0.00;0.62;3.93;3.53;;;24.10;32.40;;;;;;2260538;61;20360;-70
2022/05/24 11:12:46;0.00;0.00;0.62;0.00;0.00;0.62;3.63;3.30;;;24.10;32.40;;;;;;2259613;61;20947;-69
2022/05/24 11:15:39;0.00;0.00;0.62;0.00;0.00;0.62;3.73;3.43;;;24.20;32.60;;;;;;2259918;61;21002;-65
2022/05/24 11:18:26;0.00;0.00;0.62;0.00;0.00;0.62;3.47;3.20;;;24.20;32.60;;;;;;2260445;61;20496;-69
2022/05/24 11:21:18;0.00;0.00;0.62;0.00;0.00;0.62;3.10;2.90;;;24.20;32.60;;;;;;2259823;61;20361;-68
2022/05/24 11:24:11;0.00;0.00;0.62;0.00;0.00;0.62;3.43;3.13;;;24.30;32.70;;;;;;2260601;61;20369;-68
2022/05/24 11:27:01;0.00;0.00;0.62;0.00;0.00;0.62;3.83;2.70;;;24.30;32.70;;;;;;2259691;61;20444;-66
2022/05/24 11:29:50;0.00;0.00;0.62;0.00;0.00;0.62;2.83;2.63;;;24.30;32.60;;;;;;2259874;61;20920;-67
2022/05/24 11:32:43;0.00;0.00;0.62;0.00;0.00;0.62;3.17;2.87;;;24.40;32.70;;;;;;2260046;61;20838;-67
2022/05/24 11:35:35;0.00;0.00;0.62;0.00;0.00;0.62;2.93;2.63;;;24.50;32.80;;;;;;2259169;61;20465;-69
2022/05/24 11:38:38;0.00;0.00;0.62;0.00;0.00;0.62;2.40;2.20;;;24.50;32.70;;;;;;2257093;61;20437;-63
2022/05/24 11:41:31;0.00;0.00;0.62;0.00;0.00;0.62;2.50;2.30;;;24.50;32.60;;;;;;2260768;61;20661;-67
2022/05/24 11:44:33;0.00;0.00;0.62;0.00;0.00;0.62;2.50;2.30;;;24.60;32.60;;;;;;2260169;61;20452;-68